sensor_id;sensor_type;location;lat;lon;timestamp;P1;durP1;ratioP1;P2;durP2;ratioP2
18999;SDS011;9633;50.980;13.850;2022-07-03T00:01:02;6.67;;;6.07;;
18999;SDS011;9633;50.980;13.850;2022-07-03T00:02:35;6.17;;;5.67;;
18999;SDS011;9633;50.980;13.850;2022-07-03T00:04:09;7.00;;;6.30;;
18999;SDS011;9633;50.980;13.850;2022-07-03T00:05:42;8.57;;;6.13;;
18999;SDS011;9633;50.980;13.850;2022-07-03T00:07:15;6.80;;;6.20;;
18999;SDS011;9633;50.980;13.850;2022-07-03T00:08:49;7.40;;;6.70;;
18999;SDS011;9633;50.980;13.850;2022-07-03T00:10:23;6.90;;;6.20;;
18999;SDS011;9633;50.980;13.850;2022-07-03T00:11:57;6.97;;;6.40;;
18999;SDS011;9633;50.980;13.850;2022-07-03T00:13:30;7.23;;;6.53;;
18999;SDS011;9633;50.980;13.850;2022-07-03T00:15:03;6.80;;;6.20;;
18999;SDS011;9633;50.980;13.850;2022-07-03T00:16:37;6.63;;;6.03;;
18999;SDS011;9633;50.980;13.850;2022-07-03T00:18:10;6.80;;;6.20;;
18999;SDS011;9633;50.980;13.850;2022-07-03T00:19:43;7.87;;;6.37;;
18999;SDS011;9633;50.980;13.850;2022-07-03T00:21:19;6.70;;;6.10;;
18999;SDS011;9633;50.980;13.850;2022-07-03T00:22:53;6.40;;;5.73;;
18999;SDS011;9633;50.980;13.850;2022-07-03T00:24:28;7.70;;;7.00;;
18999;SDS011;9633;50.980;13.850;2022-07-03T00:26:06;8.13;;;6.40;;
18999;SDS011;9633;50.980;13.850;2022-07-03T00:27:39;8.10;;;7.10;;
18999;SDS011;9633;50.980;13.850;2022-07-03T00:29:15;8.83;;;7.03;;
18999;SDS011;9633;50.980;13.850;2022-07-03T00:30:52;7.33;;;6.63;;
18999;SDS011;9633;50.980;13.850;2022-07-03T00:32:27;7.67;;;6.97;;
18999;SDS011;9633;50.980;13.850;2022-07-03T00:34:01;7.00;;;6.40;;
18999;SDS011;9633;50.980;13.850;2022-07-03T00:35:35;7.63;;;6.67;;
18999;SDS011;9633;50.980;13.850;2022-07-03T00:37:10;7.13;;;6.47;;
18999;SDS011;9633;50.980;13.850;2022-07-03T00:38:44;7.23;;;5.93;;
18999;SDS011;9633;50.980;13.850;2022-07-03T00:40:17;6.67;;;6.07;;
18999;SDS011;9633;50.980;13.850;2022-07-03T00:41:59;8.03;;;6.37;;
18999;SDS011;9633;50.980;13.850;2022-07-03T00:43:32;6.80;;;6.20;;
18999;SDS011;9633;50.980;13.850;2022-07-03T00:45:06;6.67;;;6.07;;
18999;SDS011;9633;50.980;13.850;2022-07-03T00:46:40;6.87;;;6.20;;
18999;SDS011;9633;50.980;13.850;2022-07-03T00:48:14;7.00;;;6.17;;
18999;SDS011;9633;50.980;13.850;2022-07-03T00:49:49;7.40;;;6.30;;
18999;SDS011;9633;50.980;13.850;2022-07-03T00:51:24;7.27;;;6.57;;
18999;SDS011;9633;50.980;13.850;2022-07-03T00:52:59;7.30;;;6.60;;
18999;SDS011;9633;50.980;13.850;2022-07-03T00:54:35;7.73;;;6.90;;
18999;SDS011;9633;50.980;13.850;2022-07-03T00:56:10;7.63;;;6.80;;
18999;SDS011;9633;50.980;13.850;2022-07-03T00:57:47;8.10;;;6.83;;
18999;SDS011;9633;50.980;13.850;2022-07-03T00:59:21;7.10;;;6.50;;
18999;SDS011;9633;50.980;13.850;2022-07-03T01:00:54;7.37;;;6.33;;
18999;SDS011;9633;50.980;13.850;2022-07-03T01:02:32;6.63;;;6.00;;
18999;SDS011;9633;50.980;13.850;2022-07-03T01:04:10;7.03;;;6.43;;
18999;SDS011;9633;50.980;13.850;2022-07-03T01:05:55;7.40;;;6.57;;
18999;SDS011;9633;50.980;13.850;2022-07-03T01:07:38;6.77;;;6.20;;
18999;SDS011;9633;50.980;13.850;2022-07-03T01:09:17;6.67;;;6.07;;
18999;SDS011;9633;50.980;13.850;2022-07-03T01:10:58;7.10;;;6.60;;
18999;SDS011;9633;50.980;13.850;2022-07-03T01:12:38;7.87;;;7.17;;
18999;SDS011;9633;50.980;13.850;2022-07-03T01:14:34;8.13;;;7.00;;
18999;SDS011;9633;50.980;13.850;2022-07-03T01:16:17;6.73;;;6.17;;
18999;SDS011;9633;50.980;13.850;2022-07-03T01:17:59;7.20;;;6.57;;
18999;SDS011;9633;50.980;13.850;2022-07-03T01:19:40;7.37;;;6.77;;
18999;SDS011;9633;50.980;13.850;2022-07-03T01:21:16;7.90;;;6.47;;
18999;SDS011;9633;50.980;13.850;2022-07-03T01:22:58;7.10;;;6.50;;
18999;SDS011;9633;50.980;13.850;2022-07-03T01:24:42;7.87;;;6.60;;
18999;SDS011;9633;50.980;13.850;2022-07-03T01:26:22;7.93;;;6.70;;
18999;SDS011;9633;50.980;13.850;2022-07-03T01:27:58;7.67;;;6.40;;
18999;SDS011;9633;50.980;13.850;2022-07-03T01:29:46;7.60;;;6.90;;
18999;SDS011;9633;50.980;13.850;2022-07-03T01:31:23;6.90;;;6.30;;
18999;SDS011;9633;50.980;13.850;2022-07-03T01:32:59;7.33;;;6.70;;
18999;SDS011;9633;50.980;13.850;2022-07-03T01:34:37;7.80;;;7.20;;
18999;SDS011;9633;50.980;13.850;2022-07-03T01:36:16;8.37;;;7.57;;
18999;SDS011;9633;50.980;13.850;2022-07-03T01:37:54;8.93;;;7.30;;
18999;SDS011;9633;50.980;13.850;2022-07-03T01:39:26;7.57;;;6.87;;
18999;SDS011;9633;50.980;13.850;2022-07-03T01:41:20;7.60;;;6.90;;
18999;SDS011;9633;50.980;13.850;2022-07-03T01:43:03;8.20;;;7.50;;
18999;SDS011;9633;50.980;13.850;2022-07-03T01:44:37;7.43;;;6.73;;
18999;SDS011;9633;50.980;13.850;2022-07-03T01:46:13;8.30;;;7.50;;
18999;SDS011;9633;50.980;13.850;2022-07-03T01:47:49;8.10;;;7.30;;
18999;SDS011;9633;50.980;13.850;2022-07-03T01:49:24;8.37;;;7.57;;
18999;SDS011;9633;50.980;13.850;2022-07-03T01:50:59;8.37;;;7.50;;
18999;SDS011;9633;50.980;13.850;2022-07-03T01:52:33;8.57;;;7.87;;
18999;SDS011;9633;50.980;13.850;2022-07-03T01:54:17;8.43;;;7.63;;
18999;SDS011;9633;50.980;13.850;2022-07-03T01:55:53;8.63;;;7.83;;
18999;SDS011;9633;50.980;13.850;2022-07-03T01:57:30;8.23;;;7.53;;
18999;SDS011;9633;50.980;13.850;2022-07-03T01:59:10;8.20;;;7.27;;
18999;SDS011;9633;50.980;13.850;2022-07-03T02:00:45;8.87;;;7.57;;
18999;SDS011;9633;50.980;13.850;2022-07-03T02:02:24;8.03;;;7.10;;
18999;SDS011;9633;50.980;13.850;2022-07-03T02:04:04;7.87;;;7.17;;
18999;SDS011;9633;50.980;13.850;2022-07-03T02:05:47;8.17;;;7.47;;
18999;SDS011;9633;50.980;13.850;2022-07-03T02:07:21;8.00;;;7.20;;
18999;SDS011;9633;50.980;13.850;2022-07-03T02:09:03;7.80;;;7.10;;
18999;SDS011;9633;50.980;13.850;2022-07-03T02:11:01;7.57;;;6.87;;
18999;SDS011;9633;50.980;13.850;2022-07-03T02:12:46;7.50;;;6.80;;
18999;SDS011;9633;50.980;13.850;2022-07-03T02:14:23;8.13;;;7.33;;
18999;SDS011;9633;50.980;13.850;2022-07-03T02:15:57;8.10;;;7.40;;
18999;SDS011;9633;50.980;13.850;2022-07-03T02:17:34;7.83;;;7.13;;
18999;SDS011;9633;50.980;13.850;2022-07-03T02:19:15;7.50;;;6.77;;
18999;SDS011;9633;50.980;13.850;2022-07-03T02:20:51;7.43;;;6.80;;
18999;SDS011;9633;50.980;13.850;2022-07-03T02:22:34;7.83;;;7.23;;
18999;SDS011;9633;50.980;13.850;2022-07-03T02:24:15;8.47;;;7.53;;
18999;SDS011;9633;50.980;13.850;2022-07-03T02:25:51;8.03;;;7.23;;
18999;SDS011;9633;50.980;13.850;2022-07-03T02:27:26;8.30;;;7.50;;
18999;SDS011;9633;50.980;13.850;2022-07-03T02:29:05;7.93;;;7.23;;
18999;SDS011;9633;50.980;13.850;2022-07-03T02:30:41;7.63;;;6.93;;
18999;SDS011;9633;50.980;13.850;2022-07-03T02:32:17;7.93;;;7.13;;
18999;SDS011;9633;50.980;13.850;2022-07-03T02:33:55;7.77;;;7.10;;
18999;SDS011;9633;50.980;13.850;2022-07-03T02:35:30;8.10;;;7.40;;
18999;SDS011;9633;50.980;13.850;2022-07-03T02:37:06;8.03;;;7.23;;
18999;SDS011;9633;50.980;13.850;2022-07-03T02:38:43;7.50;;;6.80;;
18999;SDS011;9633;50.980;13.850;2022-07-03T02:40:24;9.13;;;7.57;;
18999;SDS011;9633;50.980;13.850;2022-07-03T02:42:02;8.07;;;7.37;;
18999;SDS011;9633;50.980;13.850;2022-07-03T02:43:41;8.53;;;7.73;;
18999;SDS011;9633;50.980;13.850;2022-07-03T02:45:21;8.30;;;7.60;;
18999;SDS011;9633;50.980;13.850;2022-07-03T02:47:03;8.47;;;7.67;;
18999;SDS011;9633;50.980;13.850;2022-07-03T02:48:44;8.50;;;7.70;;
18999;SDS011;9633;50.980;13.850;2022-07-03T02:50:20;8.37;;;7.57;;
18999;SDS011;9633;50.980;13.850;2022-07-03T02:51:57;9.47;;;8.53;;
18999;SDS011;9633;50.980;13.850;2022-07-03T02:53:38;8.40;;;7.60;;
18999;SDS011;9633;50.980;13.850;2022-07-03T02:55:22;8.30;;;7.60;;
18999;SDS011;9633;50.980;13.850;2022-07-03T02:57:06;8.20;;;7.40;;
18999;SDS011;9633;50.980;13.850;2022-07-03T02:58:57;9.33;;;8.40;;
18999;SDS011;9633;50.980;13.850;2022-07-03T03:00:35;9.10;;;8.20;;
18999;SDS011;9633;50.980;13.850;2022-07-03T03:02:13;8.80;;;7.93;;
18999;SDS011;9633;50.980;13.850;2022-07-03T03:03:57;9.83;;;8.00;;
18999;SDS011;9633;50.980;13.850;2022-07-03T03:05:45;9.47;;;8.50;;
18999;SDS011;9633;50.980;13.850;2022-07-03T03:07:22;9.40;;;8.50;;
18999;SDS011;9633;50.980;13.850;2022-07-03T03:09:02;9.23;;;8.33;;
18999;SDS011;9633;50.980;13.850;2022-07-03T03:10:37;8.83;;;7.80;;
18999;SDS011;9633;50.980;13.850;2022-07-03T03:12:12;9.03;;;8.23;;
18999;SDS011;9633;50.980;13.850;2022-07-03T03:13:45;8.80;;;7.93;;
18999;SDS011;9633;50.980;13.850;2022-07-03T03:15:24;8.97;;;8.17;;
18999;SDS011;9633;50.980;13.850;2022-07-03T03:17:00;8.67;;;7.90;;
18999;SDS011;9633;50.980;13.850;2022-07-03T03:18:38;8.47;;;7.77;;
18999;SDS011;9633;50.980;13.850;2022-07-03T03:20:14;8.50;;;7.70;;
18999;SDS011;9633;50.980;13.850;2022-07-03T03:21:52;8.47;;;7.63;;
18999;SDS011;9633;50.980;13.850;2022-07-03T03:23:30;8.83;;;7.93;;
18999;SDS011;9633;50.980;13.850;2022-07-03T03:25:10;7.67;;;6.90;;
18999;SDS011;9633;50.980;13.850;2022-07-03T03:26:43;7.97;;;7.17;;
18999;SDS011;9633;50.980;13.850;2022-07-03T03:28:17;8.63;;;7.83;;
18999;SDS011;9633;50.980;13.850;2022-07-03T03:29:50;8.53;;;7.60;;
18999;SDS011;9633;50.980;13.850;2022-07-03T03:31:24;7.67;;;6.87;;
18999;SDS011;9633;50.980;13.850;2022-07-03T03:32:59;8.10;;;7.40;;
18999;SDS011;9633;50.980;13.850;2022-07-03T03:34:31;7.80;;;7.10;;
18999;SDS011;9633;50.980;13.850;2022-07-03T03:36:06;8.07;;;7.43;;
18999;SDS011;9633;50.980;13.850;2022-07-03T03:37:40;7.37;;;6.70;;
18999;SDS011;9633;50.980;13.850;2022-07-03T03:39:14;7.27;;;6.67;;
18999;SDS011;9633;50.980;13.850;2022-07-03T03:40:47;7.10;;;6.50;;
18999;SDS011;9633;50.980;13.850;2022-07-03T03:42:21;8.37;;;6.90;;
18999;SDS011;9633;50.980;13.850;2022-07-03T03:43:53;7.40;;;6.70;;
18999;SDS011;9633;50.980;13.850;2022-07-03T03:45:27;7.67;;;6.93;;
18999;SDS011;9633;50.980;13.850;2022-07-03T03:46:59;7.20;;;6.60;;
18999;SDS011;9633;50.980;13.850;2022-07-03T03:48:34;7.43;;;6.70;;
18999;SDS011;9633;50.980;13.850;2022-07-03T03:50:08;7.33;;;6.73;;
18999;SDS011;9633;50.980;13.850;2022-07-03T03:51:41;7.27;;;6.57;;
18999;SDS011;9633;50.980;13.850;2022-07-03T03:53:14;7.10;;;6.50;;
18999;SDS011;9633;50.980;13.850;2022-07-03T03:54:50;7.83;;;7.13;;
18999;SDS011;9633;50.980;13.850;2022-07-03T03:56:22;7.67;;;7.03;;
18999;SDS011;9633;50.980;13.850;2022-07-03T03:57:56;8.30;;;7.53;;
18999;SDS011;9633;50.980;13.850;2022-07-03T03:59:28;7.70;;;6.90;;
18999;SDS011;9633;50.980;13.850;2022-07-03T04:01:02;8.23;;;7.43;;
18999;SDS011;9633;50.980;13.850;2022-07-03T04:02:38;7.50;;;6.87;;
18999;SDS011;9633;50.980;13.850;2022-07-03T04:04:12;9.60;;;7.40;;
18999;SDS011;9633;50.980;13.850;2022-07-03T04:05:49;7.93;;;7.13;;
18999;SDS011;9633;50.980;13.850;2022-07-03T04:07:22;8.23;;;7.43;;
18999;SDS011;9633;50.980;13.850;2022-07-03T04:08:55;8.10;;;7.37;;
18999;SDS011;9633;50.980;13.850;2022-07-03T04:10:28;8.73;;;7.93;;
18999;SDS011;9633;50.980;13.850;2022-07-03T04:12:02;8.47;;;7.57;;
18999;SDS011;9633;50.980;13.850;2022-07-03T04:13:36;8.10;;;7.30;;
18999;SDS011;9633;50.980;13.850;2022-07-03T04:15:09;7.80;;;7.10;;
18999;SDS011;9633;50.980;13.850;2022-07-03T04:16:42;8.07;;;7.27;;
18999;SDS011;9633;50.980;13.850;2022-07-03T04:18:16;7.87;;;7.17;;
18999;SDS011;9633;50.980;13.850;2022-07-03T04:19:51;7.70;;;6.83;;
18999;SDS011;9633;50.980;13.850;2022-07-03T04:21:24;8.27;;;7.33;;
18999;SDS011;9633;50.980;13.850;2022-07-03T04:22:57;7.17;;;6.57;;
18999;SDS011;9633;50.980;13.850;2022-07-03T04:24:31;7.03;;;6.40;;
18999;SDS011;9633;50.980;13.850;2022-07-03T04:26:04;7.37;;;6.67;;
18999;SDS011;9633;50.980;13.850;2022-07-03T04:27:44;7.60;;;6.90;;
18999;SDS011;9633;50.980;13.850;2022-07-03T04:29:37;7.53;;;6.80;;
18999;SDS011;9633;50.980;13.850;2022-07-03T04:31:10;6.63;;;6.03;;
18999;SDS011;9633;50.980;13.850;2022-07-03T04:32:44;7.20;;;6.50;;
18999;SDS011;9633;50.980;13.850;2022-07-03T04:34:17;7.13;;;6.53;;
18999;SDS011;9633;50.980;13.850;2022-07-03T04:35:52;7.87;;;6.30;;
18999;SDS011;9633;50.980;13.850;2022-07-03T04:37:25;7.03;;;6.40;;
18999;SDS011;9633;50.980;13.850;2022-07-03T04:38:58;6.10;;;5.60;;
18999;SDS011;9633;50.980;13.850;2022-07-03T04:40:32;6.20;;;5.60;;
18999;SDS011;9633;50.980;13.850;2022-07-03T04:42:05;7.20;;;5.93;;
18999;SDS011;9633;50.980;13.850;2022-07-03T04:43:39;7.53;;;5.93;;
18999;SDS011;9633;50.980;13.850;2022-07-03T04:45:12;9.13;;;6.10;;
18999;SDS011;9633;50.980;13.850;2022-07-03T04:46:45;6.77;;;6.07;;
18999;SDS011;9633;50.980;13.850;2022-07-03T04:48:18;7.93;;;5.60;;
18999;SDS011;9633;50.980;13.850;2022-07-03T04:49:52;6.17;;;5.57;;
18999;SDS011;9633;50.980;13.850;2022-07-03T04:51:26;7.23;;;5.93;;
18999;SDS011;9633;50.980;13.850;2022-07-03T04:53:00;6.57;;;5.67;;
18999;SDS011;9633;50.980;13.850;2022-07-03T04:54:33;6.27;;;5.67;;
18999;SDS011;9633;50.980;13.850;2022-07-03T04:56:06;5.77;;;5.23;;
18999;SDS011;9633;50.980;13.850;2022-07-03T04:57:39;5.50;;;5.00;;
18999;SDS011;9633;50.980;13.850;2022-07-03T04:59:13;5.80;;;5.20;;
18999;SDS011;9633;50.980;13.850;2022-07-03T05:00:46;5.53;;;5.00;;
18999;SDS011;9633;50.980;13.850;2022-07-03T05:02:19;5.80;;;5.00;;
18999;SDS011;9633;50.980;13.850;2022-07-03T05:03:52;6.77;;;5.53;;
18999;SDS011;9633;50.980;13.850;2022-07-03T05:05:25;5.97;;;4.93;;
18999;SDS011;9633;50.980;13.850;2022-07-03T05:07:00;5.33;;;4.73;;
18999;SDS011;9633;50.980;13.850;2022-07-03T05:08:32;5.20;;;4.70;;
18999;SDS011;9633;50.980;13.850;2022-07-03T05:10:06;5.47;;;4.80;;
18999;SDS011;9633;50.980;13.850;2022-07-03T05:11:40;5.67;;;4.90;;
18999;SDS011;9633;50.980;13.850;2022-07-03T05:13:13;6.23;;;4.87;;
18999;SDS011;9633;50.980;13.850;2022-07-03T05:14:46;5.57;;;4.60;;
18999;SDS011;9633;50.980;13.850;2022-07-03T05:16:19;5.83;;;4.50;;
18999;SDS011;9633;50.980;13.850;2022-07-03T05:17:53;5.20;;;4.63;;
18999;SDS011;9633;50.980;13.850;2022-07-03T05:19:26;5.67;;;4.40;;
18999;SDS011;9633;50.980;13.850;2022-07-03T05:20:59;5.33;;;4.63;;
18999;SDS011;9633;50.980;13.850;2022-07-03T05:22:34;5.37;;;4.60;;
18999;SDS011;9633;50.980;13.850;2022-07-03T05:24:07;7.00;;;4.43;;
18999;SDS011;9633;50.980;13.850;2022-07-03T05:25:43;4.83;;;4.40;;
18999;SDS011;9633;50.980;13.850;2022-07-03T05:27:16;4.97;;;4.20;;
18999;SDS011;9633;50.980;13.850;2022-07-03T05:28:49;4.70;;;4.30;;
18999;SDS011;9633;50.980;13.850;2022-07-03T05:30:23;4.83;;;4.33;;
18999;SDS011;9633;50.980;13.850;2022-07-03T05:31:56;4.60;;;4.20;;
18999;SDS011;9633;50.980;13.850;2022-07-03T05:33:29;5.60;;;4.23;;
18999;SDS011;9633;50.980;13.850;2022-07-03T05:35:03;4.77;;;3.90;;
18999;SDS011;9633;50.980;13.850;2022-07-03T05:36:36;5.27;;;3.80;;
18999;SDS011;9633;50.980;13.850;2022-07-03T05:38:10;4.43;;;4.00;;
18999;SDS011;9633;50.980;13.850;2022-07-03T05:39:44;4.97;;;4.57;;
18999;SDS011;9633;50.980;13.850;2022-07-03T05:41:17;4.53;;;3.97;;
18999;SDS011;9633;50.980;13.850;2022-07-03T05:42:50;4.70;;;4.30;;
18999;SDS011;9633;50.980;13.850;2022-07-03T05:44:24;4.30;;;3.90;;
18999;SDS011;9633;50.980;13.850;2022-07-03T05:45:57;4.43;;;3.97;;
18999;SDS011;9633;50.980;13.850;2022-07-03T05:47:31;4.43;;;4.00;;
18999;SDS011;9633;50.980;13.850;2022-07-03T05:49:04;4.47;;;4.07;;
18999;SDS011;9633;50.980;13.850;2022-07-03T05:50:38;4.27;;;3.90;;
18999;SDS011;9633;50.980;13.850;2022-07-03T05:52:11;6.37;;;4.07;;
18999;SDS011;9633;50.980;13.850;2022-07-03T05:53:46;3.93;;;3.60;;
18999;SDS011;9633;50.980;13.850;2022-07-03T05:55:19;3.97;;;3.67;;
18999;SDS011;9633;50.980;13.850;2022-07-03T05:56:52;4.37;;;3.97;;
18999;SDS011;9633;50.980;13.850;2022-07-03T05:58:25;4.20;;;3.63;;
18999;SDS011;9633;50.980;13.850;2022-07-03T05:59:59;5.43;;;3.17;;
18999;SDS011;9633;50.980;13.850;2022-07-03T06:01:32;3.97;;;3.30;;
18999;SDS011;9633;50.980;13.850;2022-07-03T06:03:05;3.70;;;3.13;;
18999;SDS011;9633;50.980;13.850;2022-07-03T06:04:38;3.40;;;3.10;;
18999;SDS011;9633;50.980;13.850;2022-07-03T06:06:12;3.00;;;2.80;;
18999;SDS011;9633;50.980;13.850;2022-07-03T06:07:45;3.10;;;2.80;;
18999;SDS011;9633;50.980;13.850;2022-07-03T06:09:20;3.93;;;2.77;;
18999;SDS011;9633;50.980;13.850;2022-07-03T06:10:53;4.67;;;3.07;;
18999;SDS011;9633;50.980;13.850;2022-07-03T06:12:26;3.80;;;3.00;;
18999;SDS011;9633;50.980;13.850;2022-07-03T06:14:00;2.93;;;2.73;;
18999;SDS011;9633;50.980;13.850;2022-07-03T06:15:33;3.63;;;2.67;;
18999;SDS011;9633;50.980;13.850;2022-07-03T06:17:06;2.97;;;2.77;;
18999;SDS011;9633;50.980;13.850;2022-07-03T06:18:39;2.83;;;2.53;;
18999;SDS011;9633;50.980;13.850;2022-07-03T06:20:13;4.90;;;2.70;;
18999;SDS011;9633;50.980;13.850;2022-07-03T06:21:46;3.47;;;3.00;;
18999;SDS011;9633;50.980;13.850;2022-07-03T06:23:19;3.23;;;2.67;;
18999;SDS011;9633;50.980;13.850;2022-07-03T06:25:14;3.03;;;2.73;;
18999;SDS011;9633;50.980;13.850;2022-07-03T06:26:47;3.90;;;2.80;;
18999;SDS011;9633;50.980;13.850;2022-07-03T06:28:20;5.60;;;2.80;;
18999;SDS011;9633;50.980;13.850;2022-07-03T06:29:53;4.47;;;2.47;;
18999;SDS011;9633;50.980;13.850;2022-07-03T06:31:26;2.73;;;2.53;;
18999;SDS011;9633;50.980;13.850;2022-07-03T06:32:59;3.30;;;2.37;;
18999;SDS011;9633;50.980;13.850;2022-07-03T06:34:32;3.07;;;2.77;;
18999;SDS011;9633;50.980;13.850;2022-07-03T06:36:06;3.73;;;2.60;;
18999;SDS011;9633;50.980;13.850;2022-07-03T06:37:39;3.37;;;3.03;;
18999;SDS011;9633;50.980;13.850;2022-07-03T06:39:12;2.80;;;2.60;;
18999;SDS011;9633;50.980;13.850;2022-07-03T06:40:46;3.10;;;2.60;;
18999;SDS011;9633;50.980;13.850;2022-07-03T06:42:20;2.70;;;2.50;;
18999;SDS011;9633;50.980;13.850;2022-07-03T06:43:54;5.33;;;2.67;;
18999;SDS011;9633;50.980;13.850;2022-07-03T06:45:27;3.80;;;2.70;;
18999;SDS011;9633;50.980;13.850;2022-07-03T06:47:00;2.60;;;2.40;;
18999;SDS011;9633;50.980;13.850;2022-07-03T06:48:34;3.70;;;2.23;;
18999;SDS011;9633;50.980;13.850;2022-07-03T06:50:07;3.13;;;2.60;;
18999;SDS011;9633;50.980;13.850;2022-07-03T06:51:41;2.60;;;2.40;;
18999;SDS011;9633;50.980;13.850;2022-07-03T06:53:13;3.40;;;3.10;;
18999;SDS011;9633;50.980;13.850;2022-07-03T06:54:46;3.70;;;2.57;;
18999;SDS011;9633;50.980;13.850;2022-07-03T06:56:21;4.07;;;3.00;;
18999;SDS011;9633;50.980;13.850;2022-07-03T06:58:00;4.30;;;2.73;;
18999;SDS011;9633;50.980;13.850;2022-07-03T06:59:33;3.10;;;2.80;;
18999;SDS011;9633;50.980;13.850;2022-07-03T07:01:05;3.20;;;2.23;;
18999;SDS011;9633;50.980;13.850;2022-07-03T07:02:39;3.10;;;2.80;;
18999;SDS011;9633;50.980;13.850;2022-07-03T07:04:12;5.37;;;2.87;;
18999;SDS011;9633;50.980;13.850;2022-07-03T07:05:45;3.67;;;2.80;;
18999;SDS011;9633;50.980;13.850;2022-07-03T07:07:18;4.00;;;2.87;;
18999;SDS011;9633;50.980;13.850;2022-07-03T07:08:51;4.17;;;3.00;;
18999;SDS011;9633;50.980;13.850;2022-07-03T07:10:24;4.10;;;3.03;;
18999;SDS011;9633;50.980;13.850;2022-07-03T07:11:59;4.37;;;2.83;;
18999;SDS011;9633;50.980;13.850;2022-07-03T07:13:32;4.83;;;3.10;;
18999;SDS011;9633;50.980;13.850;2022-07-03T07:15:06;4.27;;;2.90;;
18999;SDS011;9633;50.980;13.850;2022-07-03T07:16:39;3.77;;;2.90;;
18999;SDS011;9633;50.980;13.850;2022-07-03T07:18:11;4.83;;;2.80;;
18999;SDS011;9633;50.980;13.850;2022-07-03T07:19:45;3.25;;;2.80;;
18999;SDS011;9633;50.980;13.850;2022-07-03T07:21:18;3.15;;;2.72;;
18999;SDS011;9633;50.980;13.850;2022-07-03T07:22:51;4.88;;;3.00;;
18999;SDS011;9633;50.980;13.850;2022-07-03T07:24:24;2.72;;;2.40;;
18999;SDS011;9633;50.980;13.850;2022-07-03T07:25:58;3.70;;;2.40;;
18999;SDS011;9633;50.980;13.850;2022-07-03T07:27:32;3.53;;;2.70;;
18999;SDS011;9633;50.980;13.850;2022-07-03T07:29:05;5.77;;;2.37;;
18999;SDS011;9633;50.980;13.850;2022-07-03T07:30:38;2.43;;;2.23;;
18999;SDS011;9633;50.980;13.850;2022-07-03T07:32:12;3.07;;;2.47;;
18999;SDS011;9633;50.980;13.850;2022-07-03T07:33:45;3.55;;;2.47;;
18999;SDS011;9633;50.980;13.850;2022-07-03T07:35:18;3.40;;;2.20;;
18999;SDS011;9633;50.980;13.850;2022-07-03T07:36:51;3.65;;;2.40;;
18999;SDS011;9633;50.980;13.850;2022-07-03T07:38:24;2.83;;;2.30;;
18999;SDS011;9633;50.980;13.850;2022-07-03T07:39:58;2.40;;;2.20;;
18999;SDS011;9633;50.980;13.850;2022-07-03T07:41:31;2.90;;;2.00;;
18999;SDS011;9633;50.980;13.850;2022-07-03T07:43:05;2.70;;;2.20;;
18999;SDS011;9633;50.980;13.850;2022-07-03T07:44:39;2.53;;;2.17;;
18999;SDS011;9633;50.980;13.850;2022-07-03T07:46:12;2.83;;;2.10;;
18999;SDS011;9633;50.980;13.850;2022-07-03T07:47:46;2.60;;;2.40;;
18999;SDS011;9633;50.980;13.850;2022-07-03T07:49:19;3.23;;;2.30;;
18999;SDS011;9633;50.980;13.850;2022-07-03T07:50:52;3.43;;;2.40;;
18999;SDS011;9633;50.980;13.850;2022-07-03T07:52:25;2.47;;;2.10;;
18999;SDS011;9633;50.980;13.850;2022-07-03T07:53:58;3.03;;;2.30;;
18999;SDS011;9633;50.980;13.850;2022-07-03T07:55:32;2.97;;;2.63;;
18999;SDS011;9633;50.980;13.850;2022-07-03T07:57:05;2.90;;;2.00;;
18999;SDS011;9633;50.980;13.850;2022-07-03T07:58:39;3.33;;;2.30;;
18999;SDS011;9633;50.980;13.850;2022-07-03T08:00:13;3.88;;;2.42;;
18999;SDS011;9633;50.980;13.850;2022-07-03T08:01:48;3.05;;;2.20;;
18999;SDS011;9633;50.980;13.850;2022-07-03T08:03:39;2.72;;;2.03;;
18999;SDS011;9633;50.980;13.850;2022-07-03T08:05:30;2.85;;;2.15;;
18999;SDS011;9633;50.980;13.850;2022-07-03T08:07:09;2.75;;;2.40;;
18999;SDS011;9633;50.980;13.850;2022-07-03T08:08:43;2.53;;;2.30;;
18999;SDS011;9633;50.980;13.850;2022-07-03T08:10:16;3.55;;;2.08;;
18999;SDS011;9633;50.980;13.850;2022-07-03T08:11:49;2.78;;;2.35;;
18999;SDS011;9633;50.980;13.850;2022-07-03T08:13:23;2.63;;;2.15;;
18999;SDS011;9633;50.980;13.850;2022-07-03T08:14:59;2.67;;;2.13;;
18999;SDS011;9633;50.980;13.850;2022-07-03T08:16:32;4.63;;;2.03;;
18999;SDS011;9633;50.980;13.850;2022-07-03T08:18:05;2.95;;;2.10;;
18999;SDS011;9633;50.980;13.850;2022-07-03T08:19:39;2.50;;;2.30;;
18999;SDS011;9633;50.980;13.850;2022-07-03T08:21:12;2.45;;;2.25;;
18999;SDS011;9633;50.980;13.850;2022-07-03T08:22:45;4.82;;;2.10;;
18999;SDS011;9633;50.980;13.850;2022-07-03T08:24:19;2.20;;;2.00;;
18999;SDS011;9633;50.980;13.850;2022-07-03T08:25:52;2.83;;;2.20;;
18999;SDS011;9633;50.980;13.850;2022-07-03T08:27:25;3.67;;;2.10;;
18999;SDS011;9633;50.980;13.850;2022-07-03T08:28:58;2.67;;;2.10;;
18999;SDS011;9633;50.980;13.850;2022-07-03T08:30:33;3.55;;;2.08;;
18999;SDS011;9633;50.980;13.850;2022-07-03T08:32:07;2.00;;;1.90;;
18999;SDS011;9633;50.980;13.850;2022-07-03T08:33:40;2.38;;;2.17;;
18999;SDS011;9633;50.980;13.850;2022-07-03T08:35:13;2.13;;;2.03;;
18999;SDS011;9633;50.980;13.850;2022-07-03T08:36:47;3.63;;;2.40;;
18999;SDS011;9633;50.980;13.850;2022-07-03T08:38:21;4.27;;;1.97;;
18999;SDS011;9633;50.980;13.850;2022-07-03T08:40:01;3.17;;;2.03;;
18999;SDS011;9633;50.980;13.850;2022-07-03T08:41:35;3.22;;;2.10;;
18999;SDS011;9633;50.980;13.850;2022-07-03T08:43:11;2.88;;;2.05;;
18999;SDS011;9633;50.980;13.850;2022-07-03T08:44:44;2.30;;;2.10;;
18999;SDS011;9633;50.980;13.850;2022-07-03T08:46:20;2.72;;;2.33;;
18999;SDS011;9633;50.980;13.850;2022-07-03T08:47:54;2.43;;;2.17;;
18999;SDS011;9633;50.980;13.850;2022-07-03T08:49:29;2.33;;;2.13;;
18999;SDS011;9633;50.980;13.850;2022-07-03T08:51:04;2.40;;;2.20;;
18999;SDS011;9633;50.980;13.850;2022-07-03T08:52:38;2.37;;;2.17;;
18999;SDS011;9633;50.980;13.850;2022-07-03T08:54:11;2.10;;;2.00;;
18999;SDS011;9633;50.980;13.850;2022-07-03T08:55:44;2.50;;;2.30;;
18999;SDS011;9633;50.980;13.850;2022-07-03T08:57:18;2.42;;;1.85;;
18999;SDS011;9633;50.980;13.850;2022-07-03T08:58:51;2.28;;;1.90;;
18999;SDS011;9633;50.980;13.850;2022-07-03T09:00:25;2.38;;;1.80;;
18999;SDS011;9633;50.980;13.850;2022-07-03T09:02:00;2.20;;;2.00;;
18999;SDS011;9633;50.980;13.850;2022-07-03T09:03:35;1.73;;;1.63;;
18999;SDS011;9633;50.980;13.850;2022-07-03T09:05:09;2.20;;;2.00;;
18999;SDS011;9633;50.980;13.850;2022-07-03T09:06:43;2.30;;;2.10;;
18999;SDS011;9633;50.980;13.850;2022-07-03T09:08:16;2.78;;;2.03;;
18999;SDS011;9633;50.980;13.850;2022-07-03T09:09:50;2.50;;;2.20;;
18999;SDS011;9633;50.980;13.850;2022-07-03T09:11:24;2.13;;;1.93;;
18999;SDS011;9633;50.980;13.850;2022-07-03T09:12:57;2.07;;;1.87;;
18999;SDS011;9633;50.980;13.850;2022-07-03T09:14:30;1.90;;;1.80;;
18999;SDS011;9633;50.980;13.850;2022-07-03T09:16:04;2.10;;;1.98;;
18999;SDS011;9633;50.980;13.850;2022-07-03T09:17:39;2.25;;;1.90;;
18999;SDS011;9633;50.980;13.850;2022-07-03T09:19:39;2.47;;;1.80;;
18999;SDS011;9633;50.980;13.850;2022-07-03T09:21:14;3.38;;;2.13;;
18999;SDS011;9633;50.980;13.850;2022-07-03T09:22:48;1.60;;;1.50;;
18999;SDS011;9633;50.980;13.850;2022-07-03T09:24:22;1.60;;;1.50;;
18999;SDS011;9633;50.980;13.850;2022-07-03T09:25:59;2.50;;;1.70;;
18999;SDS011;9633;50.980;13.850;2022-07-03T09:27:33;2.80;;;1.70;;
18999;SDS011;9633;50.980;13.850;2022-07-03T09:29:08;2.30;;;2.10;;
18999;SDS011;9633;50.980;13.850;2022-07-03T09:30:55;2.07;;;1.97;;
18999;SDS011;9633;50.980;13.850;2022-07-03T09:32:32;2.73;;;2.00;;
18999;SDS011;9633;50.980;13.850;2022-07-03T09:34:14;1.73;;;1.63;;
18999;SDS011;9633;50.980;13.850;2022-07-03T09:35:53;4.43;;;2.00;;